This is the latest recevied weather packets stored in our database for station/object K2ATL. If no packets are shown the sender has not sent any weather packets the latest 10 day(s).
| Time | Temp. | Humidity | Pressure | Rain* | Wind** | Luminosity | Snow |
|---|---|---|---|---|---|---|---|
| 1787448572 | 24.44° C | 75% | 1102.1 hPa | 0 mm | - | 0 W/m² | - |
| 1787448269 | 24.44° C | 75% | 1102.3 hPa | 0 mm | - | 0 W/m² | - |
| 1787447968 | 24.44° C | 74% | 1102.3 hPa | 0 mm | - | 0 W/m² | - |
| 1787447667 | 24.44° C | 75% | 1102.1 hPa | 0 mm | - | 0 W/m² | - |
| 1787447368 | 24.44° C | 75% | 1102 hPa | 0 mm | - | 0 W/m² | - |
| 1787447065 | 24.44° C | 76% | 1102 hPa | 0 mm | - | 0 W/m² | - |
| 1787446760 | 24.44° C | 78% | 1101.9 hPa | 0 mm | - | 0 W/m² | - |
| 1787446455 | 25° C | 76% | 1101.9 hPa | 0 mm | - | 0 W/m² | - |
| 1787446151 | 25° C | 75% | 1101.8 hPa | 0 mm | - | 0 W/m² | - |
| 1787445847 | 25° C | 74% | 1101.8 hPa | 0 mm | - | 0 W/m² | - |
| 1787445543 | 25° C | 75% | 1101.8 hPa | 0 mm | - | 0 W/m² | - |
| 1787445239 | 25° C | 75% | 1101.7 hPa | 0 mm | - | 0 W/m² | - |
| 1787444939 | 24.44° C | 76% | 1101.8 hPa | 0 mm | - | 0 W/m² | - |
| 1787444635 | 24.44° C | 77% | 1101.7 hPa | 0 mm | - | 1 W/m² | - |
| 1787444332 | 24.44° C | 76% | 1101.8 hPa | 0 mm | - | 2 W/m² | - |
| 1787444031 | 24.44° C | 77% | 1101.9 hPa | 0 mm | - | 3 W/m² | - |
| 1787443730 | 25° C | 76% | 1101.9 hPa | 0 mm | - | 5 W/m² | - |
| 1787443425 | 25° C | 75% | 1101.5 hPa | 0 mm | - | 9 W/m² | - |
| 1787443124 | 25° C | 74% | 1101.7 hPa | 0 mm | - | 12 W/m² | - |
| 1787442820 | 25.56° C | 74% | 1101.6 hPa | 0 mm | - | 17 W/m² | - |
| 1787442516 | 25.56° C | 77% | 1101.5 hPa | 0 mm | - | 22 W/m² | - |
| 1787442212 | 25.56° C | 76% | 1101.4 hPa | 0 mm | - | 21 W/m² | - |
| 1787441907 | 26.11° C | 74% | 1101.5 hPa | 0 mm | - | 29 W/m² | - |
| 1787441602 | 26.67° C | 71% | 1101.1 hPa | 0 mm | - | 37 W/m² | - |
| 1787441296 | 27.22° C | 71% | 1101.4 hPa | 0 mm | - | 50 W/m² | - |
* Rain latest hour (hover to see other rain measurements)
** Current wind speed in m/s (hover to see current wind gust speed)